sensor_id;sensor_type;location;lat;lon;timestamp;P1;durP1;ratioP1;P2;durP2;ratioP2
68188;SDS011;66299;47.514;19.218;2023-12-07T00:00:17;24.08;;;13.73;;
68188;SDS011;66299;47.514;19.218;2023-12-07T00:02:46;26.98;;;13.80;;
68188;SDS011;66299;47.514;19.218;2023-12-07T00:05:15;25.52;;;13.85;;
68188;SDS011;66299;47.514;19.218;2023-12-07T00:07:43;24.13;;;12.73;;
68188;SDS011;66299;47.514;19.218;2023-12-07T00:10:11;24.45;;;12.82;;
68188;SDS011;66299;47.514;19.218;2023-12-07T00:12:44;25.38;;;13.45;;
68188;SDS011;66299;47.514;19.218;2023-12-07T00:15:12;27.92;;;13.50;;
68188;SDS011;66299;47.514;19.218;2023-12-07T00:17:41;26.65;;;13.75;;
68188;SDS011;66299;47.514;19.218;2023-12-07T00:20:11;25.73;;;13.70;;
68188;SDS011;66299;47.514;19.218;2023-12-07T00:22:40;24.80;;;12.77;;
68188;SDS011;66299;47.514;19.218;2023-12-07T00:25:08;26.85;;;13.02;;
68188;SDS011;66299;47.514;19.218;2023-12-07T00:27:37;27.25;;;13.32;;
68188;SDS011;66299;47.514;19.218;2023-12-07T00:30:08;24.88;;;12.93;;
68188;SDS011;66299;47.514;19.218;2023-12-07T00:32:37;24.65;;;13.02;;
68188;SDS011;66299;47.514;19.218;2023-12-07T00:35:10;27.05;;;13.02;;
68188;SDS011;66299;47.514;19.218;2023-12-07T00:37:39;26.80;;;13.15;;
68188;SDS011;66299;47.514;19.218;2023-12-07T00:40:08;27.27;;;13.50;;
68188;SDS011;66299;47.514;19.218;2023-12-07T00:42:38;27.08;;;13.32;;
68188;SDS011;66299;47.514;19.218;2023-12-07T00:45:08;25.63;;;13.00;;
68188;SDS011;66299;47.514;19.218;2023-12-07T00:47:37;25.73;;;13.85;;
68188;SDS011;66299;47.514;19.218;2023-12-07T00:50:06;31.45;;;14.93;;
68188;SDS011;66299;47.514;19.218;2023-12-07T00:52:35;28.20;;;14.27;;
68188;SDS011;66299;47.514;19.218;2023-12-07T00:55:04;28.38;;;14.23;;
68188;SDS011;66299;47.514;19.218;2023-12-07T00:57:38;28.73;;;13.88;;
68188;SDS011;66299;47.514;19.218;2023-12-07T01:00:10;26.25;;;13.00;;
68188;SDS011;66299;47.514;19.218;2023-12-07T01:02:39;26.50;;;13.23;;
68188;SDS011;66299;47.514;19.218;2023-12-07T01:05:08;29.15;;;13.88;;
68188;SDS011;66299;47.514;19.218;2023-12-07T01:07:37;27.05;;;13.07;;
68188;SDS011;66299;47.514;19.218;2023-12-07T01:10:06;25.00;;;13.05;;
68188;SDS011;66299;47.514;19.218;2023-12-07T01:12:38;24.83;;;13.07;;
68188;SDS011;66299;47.514;19.218;2023-12-07T01:15:07;25.00;;;12.43;;
68188;SDS011;66299;47.514;19.218;2023-12-07T01:17:39;24.58;;;12.23;;
68188;SDS011;66299;47.514;19.218;2023-12-07T01:20:08;23.88;;;11.75;;
68188;SDS011;66299;47.514;19.218;2023-12-07T01:22:40;20.88;;;11.18;;
68188;SDS011;66299;47.514;19.218;2023-12-07T01:25:10;24.27;;;12.07;;
68188;SDS011;66299;47.514;19.218;2023-12-07T01:27:39;20.83;;;11.25;;
68188;SDS011;66299;47.514;19.218;2023-12-07T01:30:09;21.95;;;10.82;;
68188;SDS011;66299;47.514;19.218;2023-12-07T01:32:38;22.33;;;11.73;;
68188;SDS011;66299;47.514;19.218;2023-12-07T01:35:07;23.52;;;12.65;;
68188;SDS011;66299;47.514;19.218;2023-12-07T01:37:36;23.17;;;12.13;;
68188;SDS011;66299;47.514;19.218;2023-12-07T01:40:06;24.50;;;13.05;;
68188;SDS011;66299;47.514;19.218;2023-12-07T01:42:38;26.08;;;12.27;;
68188;SDS011;66299;47.514;19.218;2023-12-07T01:45:08;25.20;;;12.95;;
68188;SDS011;66299;47.514;19.218;2023-12-07T01:47:37;24.58;;;11.82;;
68188;SDS011;66299;47.514;19.218;2023-12-07T01:50:06;23.95;;;11.90;;
68188;SDS011;66299;47.514;19.218;2023-12-07T01:52:37;23.70;;;12.03;;
68188;SDS011;66299;47.514;19.218;2023-12-07T01:55:09;18.33;;;9.57;;
68188;SDS011;66299;47.514;19.218;2023-12-07T01:57:38;20.15;;;10.38;;
68188;SDS011;66299;47.514;19.218;2023-12-07T02:00:11;19.95;;;10.35;;
68188;SDS011;66299;47.514;19.218;2023-12-07T02:02:42;18.52;;;9.48;;
68188;SDS011;66299;47.514;19.218;2023-12-07T02:05:12;17.45;;;8.43;;
68188;SDS011;66299;47.514;19.218;2023-12-07T02:07:43;17.47;;;8.63;;
68188;SDS011;66299;47.514;19.218;2023-12-07T02:10:12;19.17;;;8.52;;
68188;SDS011;66299;47.514;19.218;2023-12-07T02:12:43;17.10;;;8.60;;
68188;SDS011;66299;47.514;19.218;2023-12-07T02:15:15;16.90;;;8.52;;
68188;SDS011;66299;47.514;19.218;2023-12-07T02:17:47;16.08;;;8.35;;
68188;SDS011;66299;47.514;19.218;2023-12-07T02:20:20;17.52;;;8.63;;
68188;SDS011;66299;47.514;19.218;2023-12-07T02:22:53;16.23;;;8.50;;
68188;SDS011;66299;47.514;19.218;2023-12-07T02:25:26;15.73;;;8.25;;
68188;SDS011;66299;47.514;19.218;2023-12-07T02:28:01;16.33;;;7.97;;
68188;SDS011;66299;47.514;19.218;2023-12-07T02:30:30;16.48;;;8.43;;
68188;SDS011;66299;47.514;19.218;2023-12-07T02:32:58;15.88;;;8.35;;
68188;SDS011;66299;47.514;19.218;2023-12-07T02:35:28;15.80;;;8.63;;
68188;SDS011;66299;47.514;19.218;2023-12-07T02:37:58;15.82;;;8.50;;
68188;SDS011;66299;47.514;19.218;2023-12-07T02:40:30;15.93;;;7.95;;
68188;SDS011;66299;47.514;19.218;2023-12-07T02:43:02;16.58;;;8.05;;
68188;SDS011;66299;47.514;19.218;2023-12-07T02:45:32;15.18;;;8.00;;
68188;SDS011;66299;47.514;19.218;2023-12-07T02:48:01;14.30;;;7.47;;
68188;SDS011;66299;47.514;19.218;2023-12-07T02:50:31;15.35;;;8.00;;
68188;SDS011;66299;47.514;19.218;2023-12-07T02:53:03;15.63;;;8.40;;
68188;SDS011;66299;47.514;19.218;2023-12-07T02:55:32;15.38;;;8.23;;
68188;SDS011;66299;47.514;19.218;2023-12-07T02:58:03;14.88;;;8.10;;
68188;SDS011;66299;47.514;19.218;2023-12-07T03:00:35;14.95;;;8.00;;
68188;SDS011;66299;47.514;19.218;2023-12-07T03:03:04;15.23;;;7.60;;
68188;SDS011;66299;47.514;19.218;2023-12-07T03:05:33;13.88;;;7.28;;
68188;SDS011;66299;47.514;19.218;2023-12-07T03:08:02;12.50;;;6.30;;
68188;SDS011;66299;47.514;19.218;2023-12-07T03:10:30;12.73;;;6.70;;
68188;SDS011;66299;47.514;19.218;2023-12-07T03:13:00;12.30;;;6.53;;
68188;SDS011;66299;47.514;19.218;2023-12-07T03:15:30;11.80;;;6.20;;
68188;SDS011;66299;47.514;19.218;2023-12-07T03:17:58;10.98;;;5.85;;
68188;SDS011;66299;47.514;19.218;2023-12-07T03:20:28;12.02;;;6.03;;
68188;SDS011;66299;47.514;19.218;2023-12-07T03:22:56;11.60;;;5.90;;
68188;SDS011;66299;47.514;19.218;2023-12-07T03:25:25;12.07;;;6.28;;
68188;SDS011;66299;47.514;19.218;2023-12-07T03:27:57;11.73;;;5.75;;
68188;SDS011;66299;47.514;19.218;2023-12-07T03:30:26;11.65;;;5.93;;
68188;SDS011;66299;47.514;19.218;2023-12-07T03:32:56;12.45;;;6.57;;
68188;SDS011;66299;47.514;19.218;2023-12-07T03:35:25;12.63;;;6.35;;
68188;SDS011;66299;47.514;19.218;2023-12-07T03:37:53;13.90;;;6.85;;
68188;SDS011;66299;47.514;19.218;2023-12-07T03:40:22;13.75;;;7.10;;
68188;SDS011;66299;47.514;19.218;2023-12-07T03:42:50;12.38;;;6.85;;
68188;SDS011;66299;47.514;19.218;2023-12-07T03:45:22;14.02;;;7.20;;
68188;SDS011;66299;47.514;19.218;2023-12-07T03:47:51;13.27;;;7.45;;
68188;SDS011;66299;47.514;19.218;2023-12-07T03:50:21;13.20;;;7.20;;
68188;SDS011;66299;47.514;19.218;2023-12-07T03:52:50;12.82;;;7.13;;
68188;SDS011;66299;47.514;19.218;2023-12-07T03:55:20;13.63;;;7.53;;
68188;SDS011;66299;47.514;19.218;2023-12-07T03:57:49;14.07;;;7.72;;
68188;SDS011;66299;47.514;19.218;2023-12-07T04:00:21;13.70;;;7.88;;
68188;SDS011;66299;47.514;19.218;2023-12-07T04:02:50;14.10;;;8.00;;
68188;SDS011;66299;47.514;19.218;2023-12-07T04:05:21;13.30;;;7.28;;
68188;SDS011;66299;47.514;19.218;2023-12-07T04:07:52;13.00;;;7.40;;
68188;SDS011;66299;47.514;19.218;2023-12-07T04:10:22;14.82;;;7.90;;
68188;SDS011;66299;47.514;19.218;2023-12-07T04:12:50;13.13;;;7.63;;
68188;SDS011;66299;47.514;19.218;2023-12-07T04:15:20;13.90;;;7.68;;
68188;SDS011;66299;47.514;19.218;2023-12-07T04:17:50;16.92;;;8.52;;
68188;SDS011;66299;47.514;19.218;2023-12-07T04:20:19;14.23;;;7.93;;
68188;SDS011;66299;47.514;19.218;2023-12-07T04:22:49;16.75;;;9.20;;
68188;SDS011;66299;47.514;19.218;2023-12-07T04:25:19;16.02;;;9.50;;
68188;SDS011;66299;47.514;19.218;2023-12-07T04:27:49;15.98;;;9.45;;
68188;SDS011;66299;47.514;19.218;2023-12-07T04:30:19;16.80;;;9.63;;
68188;SDS011;66299;47.514;19.218;2023-12-07T04:32:48;21.98;;;10.20;;
68188;SDS011;66299;47.514;19.218;2023-12-07T04:35:16;17.63;;;10.18;;
68188;SDS011;66299;47.514;19.218;2023-12-07T04:37:45;25.50;;;14.43;;
68188;SDS011;66299;47.514;19.218;2023-12-07T04:40:15;37.38;;;22.73;;
68188;SDS011;66299;47.514;19.218;2023-12-07T04:42:44;78.38;;;47.30;;
68188;SDS011;66299;47.514;19.218;2023-12-07T04:45:15;77.28;;;46.97;;
68188;SDS011;66299;47.514;19.218;2023-12-07T04:47:43;67.78;;;40.97;;
68188;SDS011;66299;47.514;19.218;2023-12-07T04:50:12;95.97;;;56.92;;
68188;SDS011;66299;47.514;19.218;2023-12-07T04:52:43;99.10;;;56.50;;
68188;SDS011;66299;47.514;19.218;2023-12-07T04:55:11;121.50;;;73.82;;
68188;SDS011;66299;47.514;19.218;2023-12-07T04:57:41;31.15;;;18.85;;
68188;SDS011;66299;47.514;19.218;2023-12-07T05:00:11;28.20;;;13.32;;
68188;SDS011;66299;47.514;19.218;2023-12-07T05:02:40;23.10;;;12.48;;
68188;SDS011;66299;47.514;19.218;2023-12-07T05:05:11;23.47;;;12.50;;
68188;SDS011;66299;47.514;19.218;2023-12-07T05:07:41;23.05;;;12.50;;
68188;SDS011;66299;47.514;19.218;2023-12-07T05:10:09;22.45;;;13.07;;
68188;SDS011;66299;47.514;19.218;2023-12-07T05:12:39;25.08;;;12.43;;
68188;SDS011;66299;47.514;19.218;2023-12-07T05:15:11;22.00;;;11.98;;
68188;SDS011;66299;47.514;19.218;2023-12-07T05:17:41;21.65;;;12.32;;
68188;SDS011;66299;47.514;19.218;2023-12-07T05:20:10;20.92;;;12.02;;
68188;SDS011;66299;47.514;19.218;2023-12-07T05:22:39;23.00;;;12.20;;
68188;SDS011;66299;47.514;19.218;2023-12-07T05:25:09;20.55;;;12.13;;
68188;SDS011;66299;47.514;19.218;2023-12-07T05:27:38;20.02;;;11.55;;
68188;SDS011;66299;47.514;19.218;2023-12-07T05:30:06;21.67;;;11.57;;
68188;SDS011;66299;47.514;19.218;2023-12-07T05:32:37;19.80;;;10.70;;
68188;SDS011;66299;47.514;19.218;2023-12-07T05:35:06;20.58;;;11.00;;
68188;SDS011;66299;47.514;19.218;2023-12-07T05:37:38;20.73;;;11.10;;
68188;SDS011;66299;47.514;19.218;2023-12-07T05:40:08;19.63;;;11.13;;
68188;SDS011;66299;47.514;19.218;2023-12-07T05:42:40;20.00;;;10.73;;
68188;SDS011;66299;47.514;19.218;2023-12-07T05:45:09;20.55;;;11.18;;
68188;SDS011;66299;47.514;19.218;2023-12-07T05:47:39;19.73;;;11.18;;
68188;SDS011;66299;47.514;19.218;2023-12-07T05:50:08;19.80;;;11.43;;
68188;SDS011;66299;47.514;19.218;2023-12-07T05:52:38;21.75;;;11.60;;
68188;SDS011;66299;47.514;19.218;2023-12-07T05:55:06;20.77;;;11.70;;
68188;SDS011;66299;47.514;19.218;2023-12-07T05:57:36;21.60;;;11.73;;
68188;SDS011;66299;47.514;19.218;2023-12-07T06:00:05;21.02;;;12.00;;
68188;SDS011;66299;47.514;19.218;2023-12-07T06:02:36;22.05;;;12.48;;
68188;SDS011;66299;47.514;19.218;2023-12-07T06:05:06;20.58;;;12.10;;
68188;SDS011;66299;47.514;19.218;2023-12-07T06:07:36;23.00;;;12.15;;
68188;SDS011;66299;47.514;19.218;2023-12-07T06:10:04;21.13;;;12.32;;
68188;SDS011;66299;47.514;19.218;2023-12-07T06:12:34;22.20;;;12.48;;
68188;SDS011;66299;47.514;19.218;2023-12-07T06:15:04;19.90;;;12.38;;
68188;SDS011;66299;47.514;19.218;2023-12-07T06:17:33;20.33;;;12.13;;
68188;SDS011;66299;47.514;19.218;2023-12-07T06:20:02;21.70;;;12.23;;
68188;SDS011;66299;47.514;19.218;2023-12-07T06:22:33;20.50;;;12.30;;
68188;SDS011;66299;47.514;19.218;2023-12-07T06:25:02;19.73;;;11.95;;
68188;SDS011;66299;47.514;19.218;2023-12-07T06:27:31;21.25;;;12.90;;
68188;SDS011;66299;47.514;19.218;2023-12-07T06:30:01;20.85;;;12.82;;
68188;SDS011;66299;47.514;19.218;2023-12-07T06:32:33;22.17;;;13.35;;
68188;SDS011;66299;47.514;19.218;2023-12-07T06:35:02;22.17;;;13.13;;
68188;SDS011;66299;47.514;19.218;2023-12-07T06:37:33;26.08;;;13.65;;
68188;SDS011;66299;47.514;19.218;2023-12-07T06:40:04;21.40;;;12.05;;
68188;SDS011;66299;47.514;19.218;2023-12-07T06:42:36;21.25;;;12.57;;
68188;SDS011;66299;47.514;19.218;2023-12-07T06:45:06;22.02;;;12.80;;
68188;SDS011;66299;47.514;19.218;2023-12-07T06:47:38;23.83;;;12.85;;
68188;SDS011;66299;47.514;19.218;2023-12-07T06:50:08;22.15;;;12.23;;
68188;SDS011;66299;47.514;19.218;2023-12-07T06:52:39;20.58;;;12.35;;
68188;SDS011;66299;47.514;19.218;2023-12-07T06:55:11;22.58;;;12.20;;
68188;SDS011;66299;47.514;19.218;2023-12-07T06:57:41;22.30;;;12.55;;
68188;SDS011;66299;47.514;19.218;2023-12-07T07:00:10;24.50;;;12.80;;
68188;SDS011;66299;47.514;19.218;2023-12-07T07:02:41;22.30;;;12.60;;
68188;SDS011;66299;47.514;19.218;2023-12-07T07:05:12;20.48;;;11.15;;
68188;SDS011;66299;47.514;19.218;2023-12-07T07:07:42;22.67;;;11.98;;
68188;SDS011;66299;47.514;19.218;2023-12-07T07:10:11;22.45;;;12.18;;
68188;SDS011;66299;47.514;19.218;2023-12-07T07:12:40;22.85;;;12.70;;
68188;SDS011;66299;47.514;19.218;2023-12-07T07:15:09;22.63;;;12.85;;
68188;SDS011;66299;47.514;19.218;2023-12-07T07:17:39;22.83;;;12.98;;
68188;SDS011;66299;47.514;19.218;2023-12-07T07:20:08;22.27;;;12.50;;
68188;SDS011;66299;47.514;19.218;2023-12-07T07:22:37;21.35;;;12.00;;
68188;SDS011;66299;47.514;19.218;2023-12-07T07:25:09;22.50;;;12.63;;
68188;SDS011;66299;47.514;19.218;2023-12-07T07:27:37;23.88;;;13.05;;
68188;SDS011;66299;47.514;19.218;2023-12-07T07:30:06;23.65;;;13.07;;
68188;SDS011;66299;47.514;19.218;2023-12-07T07:32:36;23.80;;;12.77;;
68188;SDS011;66299;47.514;19.218;2023-12-07T07:35:05;21.95;;;11.90;;
68188;SDS011;66299;47.514;19.218;2023-12-07T07:37:34;23.02;;;12.50;;
68188;SDS011;66299;47.514;19.218;2023-12-07T07:40:04;23.40;;;12.82;;
68188;SDS011;66299;47.514;19.218;2023-12-07T07:42:35;23.02;;;12.90;;
68188;SDS011;66299;47.514;19.218;2023-12-07T07:45:07;27.30;;;14.95;;
68188;SDS011;66299;47.514;19.218;2023-12-07T07:47:37;24.02;;;13.65;;
68188;SDS011;66299;47.514;19.218;2023-12-07T07:50:07;23.48;;;12.73;;
68188;SDS011;66299;47.514;19.218;2023-12-07T07:52:39;23.58;;;12.75;;
68188;SDS011;66299;47.514;19.218;2023-12-07T07:55:09;26.35;;;13.40;;
68188;SDS011;66299;47.514;19.218;2023-12-07T07:57:40;24.30;;;13.38;;
68188;SDS011;66299;47.514;19.218;2023-12-07T08:00:10;23.92;;;12.80;;
68188;SDS011;66299;47.514;19.218;2023-12-07T08:02:42;23.65;;;13.43;;
68188;SDS011;66299;47.514;19.218;2023-12-07T08:05:11;23.17;;;13.38;;
68188;SDS011;66299;47.514;19.218;2023-12-07T08:07:40;22.95;;;12.85;;
68188;SDS011;66299;47.514;19.218;2023-12-07T08:10:09;25.83;;;14.15;;
68188;SDS011;66299;47.514;19.218;2023-12-07T08:12:41;24.48;;;13.80;;
68188;SDS011;66299;47.514;19.218;2023-12-07T08:15:10;24.77;;;14.48;;
68188;SDS011;66299;47.514;19.218;2023-12-07T08:17:39;24.38;;;14.85;;
68188;SDS011;66299;47.514;19.218;2023-12-07T08:20:10;26.48;;;15.30;;
68188;SDS011;66299;47.514;19.218;2023-12-07T08:22:41;22.83;;;13.80;;
68188;SDS011;66299;47.514;19.218;2023-12-07T08:25:10;23.95;;;13.57;;
68188;SDS011;66299;47.514;19.218;2023-12-07T08:27:40;23.60;;;13.40;;
68188;SDS011;66299;47.514;19.218;2023-12-07T08:30:12;26.20;;;14.18;;
68188;SDS011;66299;47.514;19.218;2023-12-07T08:32:41;22.50;;;13.13;;
68188;SDS011;66299;47.514;19.218;2023-12-07T08:35:09;24.17;;;14.02;;
68188;SDS011;66299;47.514;19.218;2023-12-07T08:37:39;24.15;;;14.00;;
68188;SDS011;66299;47.514;19.218;2023-12-07T08:40:07;23.08;;;13.68;;
68188;SDS011;66299;47.514;19.218;2023-12-07T08:42:39;22.92;;;12.65;;
68188;SDS011;66299;47.514;19.218;2023-12-07T08:45:09;21.63;;;13.45;;
68188;SDS011;66299;47.514;19.218;2023-12-07T08:47:38;22.23;;;12.90;;
68188;SDS011;66299;47.514;19.218;2023-12-07T08:50:07;22.58;;;13.93;;
68188;SDS011;66299;47.514;19.218;2023-12-07T08:52:36;21.35;;;13.15;;
68188;SDS011;66299;47.514;19.218;2023-12-07T08:55:14;21.55;;;12.70;;
68188;SDS011;66299;47.514;19.218;2023-12-07T08:57:45;20.80;;;12.85;;
68188;SDS011;66299;47.514;19.218;2023-12-07T09:00:15;21.80;;;12.90;;
68188;SDS011;66299;47.514;19.218;2023-12-07T09:02:45;21.90;;;13.73;;
68188;SDS011;66299;47.514;19.218;2023-12-07T09:05:15;22.13;;;12.95;;
68188;SDS011;66299;47.514;19.218;2023-12-07T09:07:43;22.75;;;13.65;;
68188;SDS011;66299;47.514;19.218;2023-12-07T09:10:12;19.98;;;12.88;;
68188;SDS011;66299;47.514;19.218;2023-12-07T09:12:41;21.70;;;13.60;;
68188;SDS011;66299;47.514;19.218;2023-12-07T09:15:11;23.25;;;13.35;;
68188;SDS011;66299;47.514;19.218;2023-12-07T09:17:41;19.58;;;12.63;;
68188;SDS011;66299;47.514;19.218;2023-12-07T09:20:10;19.40;;;12.32;;
68188;SDS011;66299;47.514;19.218;2023-12-07T09:22:42;21.25;;;12.95;;
68188;SDS011;66299;47.514;19.218;2023-12-07T09:25:12;22.65;;;12.73;;
68188;SDS011;66299;47.514;19.218;2023-12-07T09:27:41;20.88;;;13.45;;
68188;SDS011;66299;47.514;19.218;2023-12-07T09:30:10;22.70;;;13.18;;
68188;SDS011;66299;47.514;19.218;2023-12-07T09:32:41;21.13;;;13.43;;
68188;SDS011;66299;47.514;19.218;2023-12-07T09:35:12;20.05;;;13.48;;
68188;SDS011;66299;47.514;19.218;2023-12-07T09:37:43;20.13;;;12.50;;
68188;SDS011;66299;47.514;19.218;2023-12-07T09:40:15;20.85;;;12.20;;
68188;SDS011;66299;47.514;19.218;2023-12-07T09:42:47;20.17;;;13.10;;
68188;SDS011;66299;47.514;19.218;2023-12-07T09:45:18;25.55;;;14.85;;
68188;SDS011;66299;47.514;19.218;2023-12-07T09:47:50;30.70;;;15.73;;
68188;SDS011;66299;47.514;19.218;2023-12-07T09:50:20;26.45;;;14.77;;
68188;SDS011;66299;47.514;19.218;2023-12-07T09:52:49;24.73;;;13.68;;
68188;SDS011;66299;47.514;19.218;2023-12-07T09:55:32;24.98;;;14.00;;
68188;SDS011;66299;47.514;19.218;2023-12-07T09:58:03;25.85;;;15.38;;
68188;SDS011;66299;47.514;19.218;2023-12-07T10:00:35;27.98;;;17.52;;
68188;SDS011;66299;47.514;19.218;2023-12-07T10:03:05;30.35;;;18.58;;
68188;SDS011;66299;47.514;19.218;2023-12-07T10:08:27;31.15;;;18.95;;
68188;SDS011;66299;47.514;19.218;2023-12-07T10:11:04;30.02;;;18.77;;
68188;SDS011;66299;47.514;19.218;2023-12-07T10:13:34;30.73;;;18.67;;
68188;SDS011;66299;47.514;19.218;2023-12-07T10:16:09;33.55;;;18.38;;
68188;SDS011;66299;47.514;19.218;2023-12-07T10:18:40;29.92;;;18.45;;
68188;SDS011;66299;47.514;19.218;2023-12-07T10:21:11;32.83;;;19.15;;
68188;SDS011;66299;47.514;19.218;2023-12-07T10:23:41;29.77;;;18.00;;
68188;SDS011;66299;47.514;19.218;2023-12-07T10:26:15;29.60;;;18.52;;
68188;SDS011;66299;47.514;19.218;2023-12-07T10:28:48;28.27;;;18.25;;
68188;SDS011;66299;47.514;19.218;2023-12-07T10:31:22;32.67;;;19.30;;
68188;SDS011;66299;47.514;19.218;2023-12-07T10:33:51;30.75;;;19.25;;
68188;SDS011;66299;47.514;19.218;2023-12-07T10:36:22;32.90;;;19.20;;
68188;SDS011;66299;47.514;19.218;2023-12-07T10:38:51;33.42;;;19.92;;
68188;SDS011;66299;47.514;19.218;2023-12-07T10:41:20;32.75;;;19.83;;
68188;SDS011;66299;47.514;19.218;2023-12-07T10:43:52;29.92;;;19.63;;
68188;SDS011;66299;47.514;19.218;2023-12-07T10:46:22;31.65;;;20.30;;
68188;SDS011;66299;47.514;19.218;2023-12-07T10:48:51;31.13;;;20.40;;
68188;SDS011;66299;47.514;19.218;2023-12-07T10:51:27;33.63;;;20.60;;
68188;SDS011;66299;47.514;19.218;2023-12-07T10:53:59;30.65;;;19.73;;
68188;SDS011;66299;47.514;19.218;2023-12-07T10:56:32;30.45;;;19.17;;
68188;SDS011;66299;47.514;19.218;2023-12-07T10:59:08;29.50;;;18.48;;
68188;SDS011;66299;47.514;19.218;2023-12-07T11:01:47;31.88;;;19.15;;
68188;SDS011;66299;47.514;19.218;2023-12-07T11:04:17;30.38;;;18.48;;
68188;SDS011;66299;47.514;19.218;2023-12-07T11:06:48;27.90;;;17.98;;
68188;SDS011;66299;47.514;19.218;2023-12-07T11:09:19;30.65;;;19.60;;
68188;SDS011;66299;47.514;19.218;2023-12-07T11:11:57;30.30;;;18.73;;
68188;SDS011;66299;47.514;19.218;2023-12-07T11:14:30;42.13;;;22.55;;
68188;SDS011;66299;47.514;19.218;2023-12-07T11:17:02;30.98;;;18.60;;
68188;SDS011;66299;47.514;19.218;2023-12-07T11:19:44;30.95;;;16.73;;
68188;SDS011;66299;47.514;19.218;2023-12-07T11:22:13;26.58;;;16.92;;
68188;SDS011;66299;47.514;19.218;2023-12-07T11:24:51;27.92;;;17.67;;
68188;SDS011;66299;47.514;19.218;2023-12-07T11:27:23;27.88;;;17.92;;
68188;SDS011;66299;47.514;19.218;2023-12-07T11:29:52;29.98;;;17.88;;
68188;SDS011;66299;47.514;19.218;2023-12-07T11:32:24;29.27;;;18.20;;
68188;SDS011;66299;47.514;19.218;2023-12-07T11:34:59;32.28;;;19.50;;
68188;SDS011;66299;47.514;19.218;2023-12-07T11:40:30;30.00;;;18.98;;
68188;SDS011;66299;47.514;19.218;2023-12-07T11:43:00;31.67;;;19.17;;
68188;SDS011;66299;47.514;19.218;2023-12-07T11:45:41;31.80;;;20.13;;
68188;SDS011;66299;47.514;19.218;2023-12-07T11:48:16;31.13;;;19.73;;
68188;SDS011;66299;47.514;19.218;2023-12-07T11:50:53;33.85;;;20.92;;
68188;SDS011;66299;47.514;19.218;2023-12-07T11:53:24;36.35;;;20.17;;
68188;SDS011;66299;47.514;19.218;2023-12-07T11:55:55;30.58;;;20.40;;
68188;SDS011;66299;47.514;19.218;2023-12-07T12:00:58;30.10;;;19.52;;
68188;SDS011;66299;47.514;19.218;2023-12-07T12:03:30;31.92;;;19.65;;
68188;SDS011;66299;47.514;19.218;2023-12-07T12:05:59;32.95;;;20.63;;
68188;SDS011;66299;47.514;19.218;2023-12-07T12:08:29;32.72;;;21.17;;
68188;SDS011;66299;47.514;19.218;2023-12-07T12:10:59;33.95;;;21.30;;
68188;SDS011;66299;47.514;19.218;2023-12-07T12:13:28;33.25;;;22.58;;
68188;SDS011;66299;47.514;19.218;2023-12-07T12:15:57;33.67;;;22.10;;
68188;SDS011;66299;47.514;19.218;2023-12-07T12:18:32;34.42;;;21.95;;
68188;SDS011;66299;47.514;19.218;2023-12-07T12:21:02;34.88;;;22.55;;
68188;SDS011;66299;47.514;19.218;2023-12-07T12:23:31;37.88;;;22.08;;
68188;SDS011;66299;47.514;19.218;2023-12-07T12:26:00;33.92;;;22.15;;
68188;SDS011;66299;47.514;19.218;2023-12-07T12:28:30;35.90;;;22.30;;
68188;SDS011;66299;47.514;19.218;2023-12-07T12:31:02;34.80;;;21.88;;
68188;SDS011;66299;47.514;19.218;2023-12-07T12:33:32;32.42;;;21.77;;
68188;SDS011;66299;47.514;19.218;2023-12-07T12:36:05;35.05;;;22.35;;
68188;SDS011;66299;47.514;19.218;2023-12-07T12:38:37;31.73;;;19.90;;
68188;SDS011;66299;47.514;19.218;2023-12-07T12:41:10;26.73;;;17.42;;
68188;SDS011;66299;47.514;19.218;2023-12-07T12:43:40;41.40;;;20.55;;
68188;SDS011;66299;47.514;19.218;2023-12-07T12:46:11;40.28;;;20.27;;
68188;SDS011;66299;47.514;19.218;2023-12-07T12:48:55;25.98;;;16.02;;
68188;SDS011;66299;47.514;19.218;2023-12-07T12:51:24;24.02;;;16.63;;
68188;SDS011;66299;47.514;19.218;2023-12-07T12:53:54;29.55;;;20.35;;
68188;SDS011;66299;47.514;19.218;2023-12-07T12:56:28;39.03;;;25.45;;
68188;SDS011;66299;47.514;19.218;2023-12-07T12:58:57;39.45;;;25.27;;
68188;SDS011;66299;47.514;19.218;2023-12-07T13:01:32;35.45;;;22.85;;
68188;SDS011;66299;47.514;19.218;2023-12-07T13:04:03;27.88;;;18.63;;
68188;SDS011;66299;47.514;19.218;2023-12-07T13:06:32;26.27;;;18.20;;
68188;SDS011;66299;47.514;19.218;2023-12-07T13:09:01;26.13;;;17.45;;
68188;SDS011;66299;47.514;19.218;2023-12-07T13:11:29;23.98;;;16.73;;
68188;SDS011;66299;47.514;19.218;2023-12-07T13:13:58;26.15;;;17.00;;
68188;SDS011;66299;47.514;19.218;2023-12-07T13:16:33;25.40;;;17.15;;
68188;SDS011;66299;47.514;19.218;2023-12-07T13:19:03;25.60;;;16.92;;
68188;SDS011;66299;47.514;19.218;2023-12-07T13:21:32;28.63;;;18.80;;
68188;SDS011;66299;47.514;19.218;2023-12-07T13:24:00;28.23;;;18.52;;
68188;SDS011;66299;47.514;19.218;2023-12-07T13:26:32;32.47;;;19.90;;
68188;SDS011;66299;47.514;19.218;2023-12-07T13:29:00;29.95;;;19.05;;
68188;SDS011;66299;47.514;19.218;2023-12-07T13:31:29;28.88;;;19.83;;
68188;SDS011;66299;47.514;19.218;2023-12-07T13:33:58;31.20;;;20.42;;
68188;SDS011;66299;47.514;19.218;2023-12-07T13:36:34;33.30;;;20.83;;
68188;SDS011;66299;47.514;19.218;2023-12-07T13:39:03;32.65;;;21.30;;
68188;SDS011;66299;47.514;19.218;2023-12-07T13:41:34;31.70;;;20.73;;
68188;SDS011;66299;47.514;19.218;2023-12-07T13:44:02;34.17;;;22.63;;
68188;SDS011;66299;47.514;19.218;2023-12-07T13:46:31;38.67;;;24.65;;
68188;SDS011;66299;47.514;19.218;2023-12-07T13:49:01;38.90;;;25.08;;
68188;SDS011;66299;47.514;19.218;2023-12-07T13:51:30;42.75;;;27.05;;
68188;SDS011;66299;47.514;19.218;2023-12-07T13:54:02;43.53;;;27.40;;
68188;SDS011;66299;47.514;19.218;2023-12-07T13:56:30;39.83;;;26.00;;
68188;SDS011;66299;47.514;19.218;2023-12-07T13:59:00;41.50;;;26.35;;
68188;SDS011;66299;47.514;19.218;2023-12-07T14:01:29;39.25;;;25.42;;
68188;SDS011;66299;47.514;19.218;2023-12-07T14:04:00;38.58;;;24.50;;
68188;SDS011;66299;47.514;19.218;2023-12-07T14:06:29;37.33;;;24.48;;
68188;SDS011;66299;47.514;19.218;2023-12-07T14:09:01;37.95;;;25.60;;
68188;SDS011;66299;47.514;19.218;2023-12-07T14:11:31;36.15;;;24.05;;
68188;SDS011;66299;47.514;19.218;2023-12-07T14:14:00;37.17;;;24.63;;
68188;SDS011;66299;47.514;19.218;2023-12-07T14:16:33;40.90;;;25.80;;
68188;SDS011;66299;47.514;19.218;2023-12-07T14:19:22;39.47;;;25.80;;
68188;SDS011;66299;47.514;19.218;2023-12-07T14:21:54;43.58;;;27.13;;
68188;SDS011;66299;47.514;19.218;2023-12-07T14:24:25;49.35;;;32.88;;
68188;SDS011;66299;47.514;19.218;2023-12-07T14:26:54;45.55;;;29.85;;
68188;SDS011;66299;47.514;19.218;2023-12-07T14:29:23;101.70;;;62.53;;
68188;SDS011;66299;47.514;19.218;2023-12-07T14:31:53;109.18;;;65.05;;
68188;SDS011;66299;47.514;19.218;2023-12-07T14:34:21;81.72;;;51.40;;
68188;SDS011;66299;47.514;19.218;2023-12-07T14:37:01;73.80;;;46.67;;